KTMA

Henry Tift Myers Airport

Tifton, Georgia, USA
METAR KTMA 151855Z AUTO 21008KT 10SM SCT036 BKN090 21/12 A2994 RMK AO2 T02100121
Observed Flight Rules
Feb-15 @ 18:55 UTC (30 minutes ago) Visual Flight Rules
Wind Visibility Clouds
210° at 8 knots 10 miles
  • Scattered at 3,600' AGL
  • Broken at 9,000' AGL
Temperatures Readings
Current 21°C / 70°F
Dewpoint 12°C / 54°F
Humidity 57%
Altimeter 29.94" Hg
Pressure 1013.92 hPa
Elevation 109
METAR KTMA 151855Z AUTO 21008KT 10SM SCT036 BKN090 21/12 A2994 RMK AO2 T02100121
Observed Flight Rules
Feb-15 @ 18:55 UTC
(30 minutes ago)
VFR
Wind Visibility
210° at 8 knots 10 miles
Clouds
  • Scattered at 3,600' AGL
  • Broken at 9,000' AGL
Temperature Dewpoint
21°C / 70°F 12°C / 54°F
Humidity Altimeter Pressure
57% 29.94" Hg 1013.92 hPa